Unser Flugplatzteam

Segelflugzeugschlepp am Flugplatz Konstanz

Unsere freundlichen Mitarbeiter stehen Ihnen gerne mit Rat und Tat zur Seite:

Robert Leitner

Flugleiter, Landesbeauftragter für Luftaufsicht am Verkehrlandeplatz Konstanz

Minky Schweizer

Flugleiterin

Live am Platz

Die Bilder unserer Webcams werden alle 5 Minuten aktualisiert.

Sonnenaufgang:

06:33 UTC / 07:33 Lokal

Sonnenuntergang:

15:44 UTC / 16:44 Lokal

METAR (19.11.2019 03:20 UTC):

EDNY 190220Z AUTO VRB02KT 9999 // BKN130/// 00/M01 Q1016
VFR

TAF (19.11.2019 00:00 UTC):

TAF EDNY 182300Z 1900/1924 VRB03KT 9999 BKN025

Alle Angaben unverbindlich und ohne Gewähr. Zeiten genähert.

Für den Verkehrslandeplatz Konstanz werden keine offiziellen Wetterinformationen ausgegeben. Daher werden zur Orientierung Daten des nahegelegenen Flughafens Friedrichshafen dargestellt.

Flugwetterdaten zur Verfügung gestellt von wippich.aero.